Time;durP1;ratioP1;P1;durP2;ratioP2;P2;SDS_P1;SDS_P2;PMS_P1;PMS_P2;Temp;Humidity;BMP_temperature;BMP_pressure;BME280_temperature;BME280_humidity;BME280_pressure;Samples;Min_cycle;Max_cycle;Signal;HPM_P1;HPM_P2
2021/03/05 00:00:14;;;;;;;62.20;31.75;;;7.20;73.00;;;;;;5062943;28;20013;-67
2021/03/05 00:02:40;;;;;;;59.92;32.45;;;7.30;73.00;;;;;;5052672;28;20032;-67
2021/03/05 00:05:07;;;;;;;57.42;31.90;;;7.30;72.90;;;;;;5067756;28;20045;-67
2021/03/05 00:07:34;;;;;;;59.50;32.70;;;7.30;73.00;;;;;;5079408;28;20425;-67
2021/03/05 00:09:59;;;;;;;64.32;32.88;;;7.20;73.10;;;;;;5071556;28;20040;-67
2021/03/05 00:12:25;;;;;;;56.40;31.50;;;7.20;73.30;;;;;;5073712;28;20021;-66
2021/03/05 00:14:51;;;;;;;56.60;30.38;;;7.30;73.30;;;;;;5068214;28;20032;-67
2021/03/05 00:17:17;;;;;;;58.67;32.55;;;7.30;73.30;;;;;;5072496;28;20028;-67
2021/03/05 00:19:43;;;;;;;63.00;33.17;;;7.30;73.30;;;;;;5072879;28;20030;-66
2021/03/05 00:22:09;;;;;;;62.85;33.58;;;7.30;73.40;;;;;;5072670;28;20103;-67
2021/03/05 00:24:35;;;;;;;62.95;33.15;;;7.30;73.40;;;;;;5055353;28;20079;-66
2021/03/05 00:27:01;;;;;;;59.92;33.05;;;7.30;73.40;;;;;;5054841;28;20048;-67
2021/03/05 00:29:27;;;;;;;60.85;32.55;;;7.30;73.40;;;;;;5054495;28;20101;-67
2021/03/05 00:31:53;;;;;;;66.78;35.50;;;7.30;73.40;;;;;;5055219;28;20035;-66
2021/03/05 00:34:19;;;;;;;61.10;34.88;;;7.30;73.50;;;;;;5072236;28;20021;-67
2021/03/05 00:36:45;;;;;;;67.50;37.28;;;7.30;73.40;;;;;;5072891;28;20026;-67
2021/03/05 00:39:11;;;;;;;67.55;34.92;;;7.40;73.50;;;;;;5054492;28;20105;-67
2021/03/05 00:41:36;;;;;;;64.47;33.55;;;7.40;73.40;;;;;;5063550;28;20134;-67
2021/03/05 00:44:05;;;;;;;66.07;36.55;;;7.40;73.40;;;;;;5055010;28;20032;-67
2021/03/05 00:46:32;;;;;;;64.05;34.88;;;7.40;73.50;;;;;;5054799;28;20025;-67
2021/03/05 00:48:58;;;;;;;67.32;35.85;;;7.30;73.50;;;;;;5066542;28;20499;-67
2021/03/05 00:51:24;;;;;;;66.78;36.00;;;7.40;73.60;;;;;;5047274;28;20141;-66
2021/03/05 00:53:50;;;;;;;66.13;35.85;;;7.30;73.50;;;;;;5054389;28;20040;-66
2021/03/05 00:56:16;;;;;;;68.38;36.00;;;7.40;73.60;;;;;;5055077;28;20116;-66
2021/03/05 00:58:42;;;;;;;70.13;36.70;;;7.40;73.50;;;;;;5054176;28;20111;-66
2021/03/05 01:01:08;;;;;;;64.22;36.75;;;7.30;73.60;;;;;;5053471;28;20047;-67
2021/03/05 01:03:34;;;;;;;69.00;36.28;;;7.30;73.60;;;;;;5051893;28;20025;-66
2021/03/05 01:06:00;;;;;;;71.85;36.70;;;7.30;73.70;;;;;;5071048;28;20033;-67
2021/03/05 01:08:26;;;;;;;67.18;35.78;;;7.30;73.80;;;;;;5072472;28;20035;-67
2021/03/05 01:10:52;;;;;;;70.35;35.10;;;7.30;73.70;;;;;;5048692;28;20029;-66
2021/03/05 01:13:18;;;;;;;62.55;33.50;;;7.30;73.80;;;;;;5070654;28;20029;-66
2021/03/05 01:15:44;;;;;;;66.18;35.70;;;7.20;73.70;;;;;;5054746;28;20033;-66
2021/03/05 01:18:09;;;;;;;62.85;34.17;;;7.20;73.90;;;;;;5054406;28;20029;-66
2021/03/05 01:20:36;;;;;;;67.43;35.33;;;7.10;73.90;;;;;;5054630;28;20525;-66
2021/03/05 01:23:02;;;;;;;66.38;34.95;;;7.10;74.10;;;;;;5054282;28;20082;-66
2021/03/05 01:25:30;;;;;;;67.72;34.65;;;7.10;74.10;;;;;;5054309;28;20072;-66
2021/03/05 01:27:56;;;;;;;68.05;35.10;;;7.00;74.10;;;;;;5054061;28;20029;-67
2021/03/05 01:30:23;;;;;;;66.68;33.90;;;6.90;74.10;;;;;;5071870;28;20126;-67
2021/03/05 01:32:50;;;;;;;69.38;35.15;;;6.90;74.30;;;;;;5054465;28;20029;-66
2021/03/05 01:35:21;;;;;;;72.60;35.60;;;6.80;74.30;;;;;;5058541;28;20047;-67
2021/03/05 01:37:47;;;;;;;78.35;39.30;;;6.80;74.30;;;;;;5054354;28;20029;-66
2021/03/05 01:40:16;;;;;;;68.93;37.58;;;6.70;74.50;;;;;;5072452;28;20024;-67
2021/03/05 01:42:42;;;;;;;65.70;34.30;;;6.60;74.60;;;;;;5068197;28;20027;-66
2021/03/05 01:45:19;;;;;;;67.40;32.33;;;6.60;74.50;;;;;;5056457;28;20056;-66
2021/03/05 01:47:46;;;;;;;64.20;33.33;;;6.50;74.40;;;;;;5054788;28;20029;-66
2021/03/05 01:50:21;;;;;;;65.88;33.45;;;6.40;74.50;;;;;;5053530;28;20025;-67
2021/03/05 01:53:02;;;;;;;68.78;33.13;;;6.30;74.70;;;;;;5071944;28;20123;-66
2021/03/05 01:55:28;;;;;;;76.07;34.13;;;6.20;74.70;;;;;;5071457;28;20040;-66
2021/03/05 01:57:55;;;;;;;72.53;33.25;;;6.10;74.70;;;;;;5062389;28;20462;-66
2021/03/05 02:00:31;;;;;;;78.18;34.90;;;6.10;75.00;;;;;;5055479;28;20032;-66
2021/03/05 02:02:57;;;;;;;74.35;36.15;;;6.00;75.20;;;;;;5084969;28;20029;-66
2021/03/05 02:05:23;;;;;;;72.95;33.88;;;5.90;75.30;;;;;;5083306;28;20043;-66
2021/03/05 02:07:49;;;;;;;69.35;32.95;;;5.90;75.50;;;;;;5062202;28;20115;-69
2021/03/05 02:10:15;;;;;;;74.25;34.22;;;5.90;75.80;;;;;;5072903;28;20123;-68
2021/03/05 02:12:41;;;;;;;80.28;35.10;;;5.80;75.90;;;;;;5057553;28;20028;-67
2021/03/05 02:15:08;;;;;;;76.28;35.60;;;5.80;76.20;;;;;;5070590;28;20058;-68
2021/03/05 02:18:03;;;;;;;80.72;36.70;;;5.80;76.40;;;;;;5086109;28;20107;-66
2021/03/05 02:21:00;;;;;;;73.10;33.30;;;5.80;76.60;;;;;;5064070;28;20078;-67
2021/03/05 02:23:46;;;;;;;77.28;33.88;;;5.80;76.70;;;;;;5060535;28;20029;-67
2021/03/05 02:26:59;;;;;;;84.05;37.78;;;5.80;76.60;;;;;;5068439;28;20071;-66
2021/03/05 02:30:01;;;;;;;73.13;36.30;;;5.80;76.70;;;;;;4996654;28;20026;-66
2021/03/05 02:32:46;;;;;;;82.88;38.70;;;5.80;76.60;;;;;;5089436;28;20028;-67
2021/03/05 02:35:12;;;;;;;220.98;66.78;;;5.70;76.80;;;;;;5077347;28;20030;-67
2021/03/05 02:37:44;;;;;;;150.13;54.60;;;5.80;77.00;;;;;;5072164;28;20028;-68
2021/03/05 02:40:19;;;;;;;82.75;37.88;;;5.70;77.10;;;;;;5075094;28;20021;-66
2021/03/05 02:43:02;;;;;;;96.97;42.15;;;5.70;77.20;;;;;;5074596;28;20024;-66
2021/03/05 02:45:33;;;;;;;66.50;31.42;;;5.70;77.20;;;;;;5077546;28;20051;-66
2021/03/05 02:48:09;;;;;;;67.95;32.75;;;5.70;77.10;;;;;;5077030;28;20105;-66
2021/03/05 02:50:41;;;;;;;99.68;46.35;;;5.70;77.20;;;;;;5065111;28;20033;-66
2021/03/05 02:53:12;;;;;;;96.60;43.00;;;5.70;77.30;;;;;;5079423;28;20119;-66
2021/03/05 02:55:40;;;;;;;80.00;37.45;;;5.70;77.30;;;;;;5095447;28;20024;-66
2021/03/05 02:58:08;;;;;;;66.72;30.65;;;5.80;77.10;;;;;;5077019;28;20428;-68
2021/03/05 03:00:34;;;;;;;68.88;30.33;;;5.80;76.90;;;;;;5065407;28;20063;-66
2021/03/05 03:03:01;;;;;;;63.40;30.30;;;5.70;76.60;;;;;;5066856;28;20048;-66
2021/03/05 03:05:29;;;;;;;64.65;28.58;;;5.70;76.50;;;;;;5076772;28;20058;-65
2021/03/05 03:07:55;;;;;;;63.80;28.95;;;5.70;76.50;;;;;;5077337;28;20482;-65
2021/03/05 03:10:25;;;;;;;61.42;28.33;;;5.70;76.40;;;;;;5076750;28;20131;-66
2021/03/05 03:12:55;;;;;;;64.07;27.83;;;5.70;76.30;;;;;;5069188;28;20086;-67
2021/03/05 03:15:24;;;;;;;69.18;30.10;;;5.70;76.30;;;;;;5076763;28;20043;-66
2021/03/05 03:17:52;;;;;;;68.90;27.98;;;5.70;76.20;;;;;;5076957;28;20444;-66
2021/03/05 03:20:20;;;;;;;67.38;28.10;;;5.70;76.10;;;;;;5067785;28;20028;-66
2021/03/05 03:22:46;;;;;;;68.90;29.30;;;5.70;76.00;;;;;;5041121;28;20057;-67
2021/03/05 03:25:14;;;;;;;60.80;28.13;;;5.70;75.90;;;;;;5040305;28;20039;-67
2021/03/05 03:27:40;;;;;;;57.90;26.95;;;5.70;75.90;;;;;;5064098;28;20083;-67
2021/03/05 03:30:12;;;;;;;59.58;26.80;;;5.70;76.00;;;;;;5081516;28;20023;-67
2021/03/05 03:32:39;;;;;;;63.85;26.95;;;5.70;75.70;;;;;;5046340;28;20020;-66
2021/03/05 03:35:07;;;;;;;64.63;29.85;;;5.80;75.60;;;;;;5062138;28;20039;-67
2021/03/05 03:37:33;;;;;;;60.47;27.77;;;5.80;75.60;;;;;;5068794;28;20360;-66
2021/03/05 03:40:07;;;;;;;56.35;25.25;;;5.70;75.50;;;;;;5055193;28;20059;-66
2021/03/05 03:42:34;;;;;;;64.53;26.48;;;5.70;75.40;;;;;;5070784;28;20522;-66
2021/03/05 03:45:01;;;;;;;56.70;26.63;;;5.70;75.30;;;;;;5060507;28;20068;-67
2021/03/05 03:47:27;;;;;;;56.35;26.10;;;5.70;75.20;;;;;;5069977;28;20032;-66
2021/03/05 03:49:57;;;;;;;61.78;27.38;;;5.70;75.20;;;;;;5058463;28;20020;-66
2021/03/05 03:52:54;;;;;;;64.70;29.85;;;5.70;75.10;;;;;;5050723;28;20041;-66
2021/03/05 03:55:20;;;;;;;60.75;28.15;;;5.70;75.20;;;;;;5027169;28;20045;-66
2021/03/05 03:57:48;;;;;;;60.97;27.10;;;5.70;75.20;;;;;;5086016;28;20151;-66
2021/03/05 04:00:16;;;;;;;63.40;28.40;;;5.70;75.20;;;;;;5074716;28;20035;-66
2021/03/05 04:02:49;;;;;;;64.32;28.88;;;5.70;75.20;;;;;;5052447;28;20463;-66
2021/03/05 04:05:19;;;;;;;62.42;28.38;;;5.70;75.20;;;;;;5086971;28;20024;-65
2021/03/05 04:07:46;;;;;;;67.22;29.58;;;5.70;75.30;;;;;;5072834;28;20033;-66
2021/03/05 04:10:13;;;;;;;62.95;27.48;;;5.70;75.20;;;;;;5073789;28;20032;-66
2021/03/05 04:12:40;;;;;;;58.15;26.17;;;5.70;75.30;;;;;;5076101;28;20405;-66
2021/03/05 04:15:07;;;;;;;56.40;25.63;;;5.60;75.10;;;;;;5086631;28;20024;-66
2021/03/05 04:17:32;;;;;;;61.88;27.52;;;5.60;74.80;;;;;;5070270;28;20060;-66
2021/03/05 04:19:59;;;;;;;56.28;26.48;;;5.60;74.90;;;;;;5075500;28;20415;-66
2021/03/05 04:22:27;;;;;;;60.95;27.85;;;5.60;74.90;;;;;;5072630;28;20101;-66
2021/03/05 04:24:52;;;;;;;54.67;26.25;;;5.60;74.80;;;;;;5075548;28;20039;-66
2021/03/05 04:27:18;;;;;;;57.53;26.13;;;5.60;74.80;;;;;;5059372;28;20020;-66
2021/03/05 04:29:44;;;;;;;61.60;27.05;;;5.60;74.80;;;;;;5061120;28;20471;-66
2021/03/05 04:32:10;;;;;;;55.05;25.33;;;5.60;74.80;;;;;;5065354;28;20115;-66
2021/03/05 04:34:35;;;;;;;57.70;25.88;;;5.50;74.70;;;;;;5073654;28;20031;-66
2021/03/05 04:37:01;;;;;;;57.88;25.92;;;5.50;75.30;;;;;;5058429;28;20025;-66
2021/03/05 04:39:27;;;;;;;57.00;24.92;;;5.50;74.90;;;;;;5063132;28;20025;-66
2021/03/05 04:41:53;;;;;;;53.67;25.77;;;5.50;74.80;;;;;;5060915;28;20151;-66
2021/03/05 04:44:19;;;;;;;62.80;28.15;;;5.50;74.70;;;;;;5055450;28;20021;-66
2021/03/05 04:46:44;;;;;;;53.10;25.10;;;5.50;74.60;;;;;;5074984;28;20107;-66
2021/03/05 04:49:10;;;;;;;52.00;23.33;;;5.50;74.60;;;;;;5082617;28;20098;-64
2021/03/05 04:51:36;;;;;;;52.20;25.45;;;5.50;74.40;;;;;;5067453;28;20048;-67
2021/03/05 04:54:03;;;;;;;50.53;23.27;;;5.50;74.40;;;;;;5071352;28;20519;-66
2021/03/05 04:56:28;;;;;;;50.65;23.02;;;5.40;74.20;;;;;;5073964;28;20111;-67
2021/03/05 04:58:54;;;;;;;46.83;23.23;;;5.40;74.20;;;;;;5059260;28;20123;-67
2021/03/05 05:01:20;;;;;;;51.58;23.92;;;5.40;74.30;;;;;;5081172;28;20028;-66
2021/03/05 05:03:46;;;;;;;51.88;24.30;;;5.40;74.30;;;;;;5064537;28;20386;-66
2021/03/05 05:06:13;;;;;;;56.75;24.98;;;5.30;74.20;;;;;;5070849;28;20036;-67
2021/03/05 05:08:38;;;;;;;55.50;24.50;;;5.30;74.30;;;;;;5074194;28;20082;-67
2021/03/05 05:11:04;;;;;;;51.72;23.92;;;5.30;74.50;;;;;;5074468;28;20028;-67
2021/03/05 05:13:30;;;;;;;50.33;23.33;;;5.30;74.70;;;;;;5090102;28;20049;-68
2021/03/05 05:15:56;;;;;;;50.33;23.67;;;5.30;75.00;;;;;;5092978;28;20028;-66
2021/03/05 05:18:22;;;;;;;52.88;23.73;;;5.20;75.00;;;;;;5074655;28;20031;-67
2021/03/05 05:20:48;;;;;;;59.50;25.02;;;5.20;75.20;;;;;;5073204;28;20474;-67
2021/03/05 05:23:14;;;;;;;58.65;24.13;;;5.10;75.50;;;;;;5074473;28;20115;-66
2021/03/05 05:25:40;;;;;;;59.22;25.15;;;5.10;75.90;;;;;;5074372;28;20572;-66
2021/03/05 05:28:06;;;;;;;55.35;26.08;;;5.00;76.20;;;;;;5065280;28;20037;-69
2021/03/05 05:30:31;;;;;;;58.60;26.77;;;5.10;76.50;;;;;;5079643;28;20024;-69
2021/03/05 05:32:57;;;;;;;60.47;27.02;;;5.10;76.60;;;;;;5058630;28;20051;-69
2021/03/05 05:35:23;;;;;;;56.00;26.23;;;5.10;76.80;;;;;;5058389;28;20112;-68
2021/03/05 05:37:49;;;;;;;59.72;27.48;;;5.10;76.90;;;;;;5049298;28;20047;-68
2021/03/05 05:40:16;;;;;;;63.65;26.90;;;5.10;77.00;;;;;;5071384;28;20073;-68
2021/03/05 05:42:41;;;;;;;61.03;26.17;;;5.10;77.00;;;;;;5071274;28;20071;-68
2021/03/05 05:45:08;;;;;;;61.42;27.33;;;5.20;77.10;;;;;;5058985;28;20049;-69
2021/03/05 05:47:37;;;;;;;62.30;27.65;;;5.20;77.10;;;;;;5066210;28;20024;-68
2021/03/05 05:50:08;;;;;;;60.03;28.05;;;5.20;77.70;;;;;;5063536;28;20021;-69
2021/03/05 05:52:34;;;;;;;63.30;28.70;;;5.20;77.10;;;;;;5065255;28;20062;-69
2021/03/05 05:55:02;;;;;;;70.68;29.45;;;5.20;77.00;;;;;;5080518;28;20060;-69
2021/03/05 05:57:28;;;;;;;62.50;27.10;;;5.30;77.10;;;;;;5087753;28;20057;-69
2021/03/05 05:59:57;;;;;;;63.15;28.92;;;5.30;77.10;;;;;;5070520;28;20017;-69
2021/03/05 06:02:24;;;;;;;64.20;29.83;;;5.30;77.10;;;;;;5056154;28;20035;-69
2021/03/05 06:04:59;;;;;;;70.35;31.20;;;5.40;77.10;;;;;;5076191;28;20441;-69
2021/03/05 06:07:25;;;;;;;66.15;29.98;;;5.40;77.00;;;;;;5047051;28;20116;-69
2021/03/05 06:09:52;;;;;;;70.60;30.10;;;5.40;76.90;;;;;;5087185;28;20591;-67
2021/03/05 06:12:18;;;;;;;64.03;28.88;;;5.50;77.00;;;;;;5053419;28;20039;-68
2021/03/05 06:14:45;;;;;;;63.45;29.00;;;5.50;76.90;;;;;;5057922;28;20395;-68
2021/03/05 06:17:12;;;;;;;63.30;28.25;;;5.50;76.60;;;;;;5077452;28;20375;-71
2021/03/05 06:19:38;;;;;;;67.43;28.77;;;5.50;76.70;;;;;;5073561;28;20036;-70
2021/03/05 06:22:23;;;;;;;68.65;28.65;;;5.50;76.70;;;;;;5057084;28;20024;-70
2021/03/05 06:24:49;;;;;;;63.28;29.05;;;5.50;76.60;;;;;;5060468;28;20035;-71
2021/03/05 06:27:18;;;;;;;60.28;28.83;;;5.60;76.40;;;;;;5046018;28;21035;-76
2021/03/05 06:29:47;;;;;;;59.50;28.35;;;5.60;76.30;;;;;;5062137;28;20052;-73
2021/03/05 06:32:15;;;;;;;61.63;27.40;;;5.60;76.30;;;;;;5060987;28;20050;-76
2021/03/05 06:34:47;;;;;;;57.67;25.58;;;5.60;76.10;;;;;;5058885;28;20037;-78
2021/03/05 06:37:13;;;;;;;59.55;25.50;;;5.50;75.90;;;;;;5088023;28;20081;-79
2021/03/05 06:39:39;;;;;;;57.65;26.52;;;5.50;76.10;;;;;;5064458;28;20043;-81
2021/03/05 06:42:13;;;;;;;59.92;26.05;;;5.60;76.20;;;;;;5043671;28;20029;-68
2021/03/05 06:44:41;;;;;;;54.10;24.52;;;5.70;76.30;;;;;;5052713;28;20040;-79
2021/03/05 06:47:18;;;;;;;56.33;25.83;;;5.70;76.20;;;;;;5065594;28;20100;-71
2021/03/05 06:49:49;;;;;;;58.22;24.73;;;5.90;76.00;;;;;;5061723;28;20036;-69
2021/03/05 06:52:16;;;;;;;54.08;25.92;;;5.90;75.80;;;;;;5054874;28;20056;-70
2021/03/05 06:54:43;;;;;;;54.50;26.00;;;6.00;75.70;;;;;;5064398;28;20043;-71
2021/03/05 06:57:14;;;;;;;54.85;26.60;;;6.10;75.40;;;;;;5060050;28;20446;-72
2021/03/05 06:59:42;;;;;;;55.22;25.70;;;6.20;75.20;;;;;;5059995;28;20097;-72
2021/03/05 07:02:14;;;;;;;59.08;27.08;;;6.20;74.70;;;;;;5052431;28;20040;-71
2021/03/05 07:04:49;;;;;;;55.95;24.85;;;6.20;74.40;;;;;;5064706;28;20526;-72
2021/03/05 07:07:19;;;;;;;50.78;22.92;;;6.20;74.50;;;;;;5093372;28;20085;-73
2021/03/05 07:09:51;;;;;;;62.10;27.73;;;6.30;74.40;;;;;;5074797;28;20047;-71
2021/03/05 07:12:20;;;;;;;65.55;29.65;;;6.40;74.20;;;;;;5095112;28;20110;-71
2021/03/05 07:15:09;;;;;;;46.10;21.48;;;6.50;74.20;;;;;;5077085;28;20078;-71
2021/03/05 07:17:35;;;;;;;58.72;26.42;;;6.50;73.10;;;;;;5073232;28;20405;-71
2021/03/05 07:20:01;;;;;;;63.30;28.23;;;6.50;72.90;;;;;;5094813;28;20028;-71
2021/03/05 07:22:29;;;;;;;50.13;23.33;;;6.60;73.00;;;;;;5076498;28;20077;-71
2021/03/05 07:24:57;;;;;;;54.10;23.35;;;6.60;72.70;;;;;;5076142;28;20177;-71
2021/03/05 07:27:38;;;;;;;48.20;21.50;;;6.60;72.60;;;;;;5076457;28;20024;-71
2021/03/05 07:30:10;;;;;;;47.40;20.98;;;6.70;72.20;;;;;;5095385;28;20027;-71
2021/03/05 07:32:49;;;;;;;54.80;24.92;;;6.70;72.00;;;;;;5076518;28;20047;-71
2021/03/05 07:35:23;;;;;;;52.25;23.58;;;6.70;71.80;;;;;;5076007;28;20031;-72
2021/03/05 07:37:54;;;;;;;59.95;25.58;;;6.70;71.40;;;;;;5076727;28;20024;-71
2021/03/05 07:40:21;;;;;;;61.20;27.77;;;6.70;71.10;;;;;;5076293;28;20028;-72
2021/03/05 07:42:48;;;;;;;51.30;23.33;;;6.60;71.10;;;;;;5076346;28;20051;-71
2021/03/05 07:45:15;;;;;;;48.55;22.65;;;6.60;71.00;;;;;;5076093;28;20051;-71
2021/03/05 07:47:44;;;;;;;45.28;20.65;;;6.50;70.80;;;;;;5094066;28;20028;-72
2021/03/05 07:50:12;;;;;;;46.85;21.48;;;6.50;70.60;;;;;;5094306;28;20037;-71
2021/03/05 07:52:39;;;;;;;42.95;20.42;;;6.40;70.50;;;;;;5075816;28;20080;-71
2021/03/05 07:55:05;;;;;;;44.70;22.05;;;6.30;70.50;;;;;;5066503;28;20123;-71
2021/03/05 07:57:31;;;;;;;49.50;22.98;;;6.30;70.50;;;;;;5071761;28;20032;-71
2021/03/05 07:59:59;;;;;;;47.85;21.80;;;6.20;70.40;;;;;;5076068;28;20016;-71
2021/03/05 08:02:46;;;;;;;46.92;22.58;;;6.20;70.60;;;;;;5075783;28;20073;-71
2021/03/05 08:05:29;;;;;;;45.35;22.75;;;6.10;70.50;;;;;;5075469;28;20027;-71
2021/03/05 08:08:36;;;;;;;52.35;25.08;;;6.00;70.60;;;;;;5093994;28;20110;-71
2021/03/05 08:11:05;;;;;;;50.85;21.92;;;6.10;70.70;;;;;;5075267;28;20384;-71
2021/03/05 08:16:25;;;;;;;47.80;22.00;;;6.00;70.70;;;;;;5093677;28;20120;-71
2021/03/05 08:18:52;;;;;;;46.15;21.50;;;6.00;71.00;;;;;;5093604;28;20382;-71
2021/03/05 08:21:18;;;;;;;42.65;20.00;;;6.10;71.10;;;;;;5074995;28;20115;-71
2021/03/05 08:24:28;;;;;;;53.90;22.80;;;6.10;71.20;;;;;;5075248;28;20505;-71
2021/03/05 08:27:09;;;;;;;48.38;22.00;;;6.10;71.10;;;;;;5069539;28;20071;-71
2021/03/05 08:29:50;;;;;;;44.65;20.70;;;6.10;70.90;;;;;;5064862;28;20020;-71
2021/03/05 08:32:31;;;;;;;42.40;20.40;;;6.10;70.70;;;;;;5075351;28;20389;-71
2021/03/05 08:35:06;;;;;;;50.58;22.83;;;6.10;70.70;;;;;;5093389;28;20028;-71
2021/03/05 08:37:37;;;;;;;46.58;21.48;;;6.10;70.60;;;;;;5075201;28;20115;-71
2021/03/05 08:40:13;;;;;;;46.20;23.20;;;6.20;70.50;;;;;;5093411;28;20374;-71
2021/03/05 08:42:40;;;;;;;43.88;20.90;;;6.20;70.50;;;;;;5075060;28;20056;-71
2021/03/05 08:45:29;;;;;;;44.88;20.55;;;6.20;70.50;;;;;;5074934;28;20040;-71
2021/03/05 08:48:02;;;;;;;42.55;19.92;;;6.30;70.60;;;;;;5075238;28;20031;-71
2021/03/05 08:50:31;;;;;;;41.60;19.52;;;6.30;70.40;;;;;;5093109;28;20475;-71
2021/03/05 08:52:59;;;;;;;45.97;20.90;;;6.40;70.20;;;;;;5093126;28;20040;-71
2021/03/05 08:55:32;;;;;;;54.03;24.02;;;6.40;69.90;;;;;;5075193;28;20028;-71
2021/03/05 08:57:58;;;;;;;51.70;22.23;;;6.40;69.90;;;;;;5075102;28;20028;-71
2021/03/05 09:00:31;;;;;;;44.97;21.58;;;6.30;69.80;;;;;;5075212;28;20462;-71
2021/03/05 09:03:10;;;;;;;42.40;20.08;;;6.30;69.90;;;;;;5074645;28;20099;-72
2021/03/05 09:05:39;;;;;;;42.45;19.77;;;6.30;69.90;;;;;;5074827;28;20035;-71
2021/03/05 09:08:07;;;;;;;36.70;19.35;;;6.40;70.00;;;;;;5074850;28;20416;-71
2021/03/05 09:10:39;;;;;;;40.00;18.48;;;6.50;69.70;;;;;;5075123;28;20032;-70
2021/03/05 09:13:04;;;;;;;42.65;20.20;;;6.50;69.50;;;;;;5074519;28;20024;-71
2021/03/05 09:15:55;;;;;;;38.53;17.90;;;6.60;69.60;;;;;;5074366;28;20032;-71
2021/03/05 09:18:26;;;;;;;42.25;18.83;;;6.60;69.40;;;;;;5074713;28;20024;-71
2021/03/05 09:20:56;;;;;;;41.03;19.10;;;6.50;69.20;;;;;;5093784;28;20030;-71
2021/03/05 09:23:33;;;;;;;42.60;20.27;;;6.50;69.00;;;;;;5097201;28;20405;-71
2021/03/05 09:26:02;;;;;;;37.53;18.13;;;6.50;69.10;;;;;;5097065;28;20039;-70
2021/03/05 09:28:49;;;;;;;51.75;23.33;;;6.60;69.10;;;;;;5096822;28;20032;-71
2021/03/05 09:31:15;;;;;;;;;;;6.60;68.90;;;;;;5079193;28;20470;-71
2021/03/05 09:33:45;;;;;;;42.97;19.88;;;6.60;69.20;;;;;;5097087;28;19904;-71
2021/03/05 09:36:13;;;;;;;41.70;20.52;;;6.60;69.10;;;;;;5078952;28;20115;-71
2021/03/05 09:38:41;;;;;;;50.63;23.02;;;6.60;68.90;;;;;;5078846;28;20463;-72
2021/03/05 09:41:20;;;;;;;41.25;21.42;;;6.60;68.70;;;;;;5078614;28;20487;-72
2021/03/05 09:43:58;;;;;;;44.28;21.50;;;6.60;68.90;;;;;;5096977;28;20043;-72
2021/03/05 09:46:26;;;;;;;39.35;18.80;;;6.60;68.90;;;;;;5078773;28;20036;-71
2021/03/05 09:48:53;;;;;;;38.17;18.38;;;6.70;68.70;;;;;;5078348;28;20047;-72
2021/03/05 09:51:20;;;;;;;46.20;22.67;;;6.70;68.60;;;;;;5078292;28;20028;-72
2021/03/05 09:53:57;;;;;;;38.83;17.52;;;6.70;68.70;;;;;;5078160;28;20036;-72
2021/03/05 09:56:27;;;;;;;40.53;21.40;;;6.80;68.80;;;;;;5078367;28;20111;-72
2021/03/05 09:59:00;;;;;;;46.88;23.50;;;6.80;68.70;;;;;;5078395;28;20024;-72
2021/03/05 10:01:27;;;;;;;61.50;36.33;;;6.90;68.80;;;;;;5078182;28;20043;-72
2021/03/05 10:03:54;;;;;;;61.95;32.42;;;6.90;69.30;;;;;;5096533;28;20024;-72
2021/03/05 10:06:20;;;;;;;50.70;29.58;;;7.00;68.60;;;;;;5077898;28;20032;-72
2021/03/05 10:08:45;;;;;;;52.03;30.88;;;7.10;68.80;;;;;;5078143;28;20123;-72
2021/03/05 10:11:13;;;;;;;48.80;26.88;;;7.20;68.80;;;;;;5096134;28;20032;-72
2021/03/05 10:13:41;;;;;;;54.67;24.70;;;7.10;68.30;;;;;;5077841;28;20390;-72
2021/03/05 10:16:28;;;;;;;46.95;22.95;;;7.20;68.40;;;;;;5078486;28;20032;-72
2021/03/05 10:18:58;;;;;;;49.80;22.10;;;7.20;68.00;;;;;;5077889;28;20024;-72
2021/03/05 10:21:24;;;;;;;41.88;20.77;;;7.10;68.00;;;;;;5077920;28;20028;-72
2021/03/05 10:23:50;;;;;;;50.08;22.63;;;7.10;68.10;;;;;;5077518;28;20039;-72
2021/03/05 10:26:22;;;;;;;68.93;29.23;;;7.10;68.10;;;;;;5077513;28;20071;-72
2021/03/05 10:29:13;;;;;;;93.47;39.80;;;7.10;68.10;;;;;;5077871;28;20663;-72
2021/03/05 10:31:50;;;;;;;66.57;29.42;;;7.00;67.90;;;;;;5095187;28;20126;-72
2021/03/05 10:34:21;;;;;;;53.88;24.13;;;7.00;67.90;;;;;;5049267;28;20363;-72
2021/03/05 10:36:47;;;;;;;54.10;24.58;;;6.90;68.00;;;;;;5077528;28;20486;-72
2021/03/05 10:39:13;;;;;;;56.20;25.58;;;6.90;68.20;;;;;;5077382;28;20038;-72
2021/03/05 10:41:39;;;;;;;53.60;25.33;;;6.90;68.20;;;;;;5096116;28;20028;-72
2021/03/05 10:44:05;;;;;;;89.25;39.72;;;7.00;68.40;;;;;;5095160;28;20024;-72
2021/03/05 10:46:31;;;;;;;76.82;36.03;;;7.00;68.40;;;;;;5077471;28;20032;-72
2021/03/05 10:48:56;;;;;;;48.22;24.38;;;7.00;68.20;;;;;;5062902;28;20020;-72
2021/03/05 10:51:22;;;;;;;44.67;22.90;;;7.10;68.10;;;;;;5095366;28;20024;-72
2021/03/05 10:53:48;;;;;;;46.83;22.52;;;7.10;67.90;;;;;;5095634;28;20081;-72
2021/03/05 10:56:15;;;;;;;46.15;23.10;;;7.20;67.90;;;;;;5077079;28;20020;-72
2021/03/05 10:58:41;;;;;;;42.28;19.70;;;7.20;67.90;;;;;;5077234;28;20466;-72
2021/03/05 11:01:06;;;;;;;42.63;21.23;;;7.10;67.60;;;;;;5095005;28;20016;-72
2021/03/05 11:03:32;;;;;;;49.72;24.00;;;7.10;67.50;;;;;;5077147;28;20028;-73
2021/03/05 11:05:58;;;;;;;60.60;27.98;;;7.10;67.70;;;;;;5077047;28;20095;-72
2021/03/05 11:08:24;;;;;;;91.13;38.10;;;7.00;67.70;;;;;;5076883;28;20162;-72
2021/03/05 11:10:49;;;;;;;51.33;25.08;;;7.00;67.80;;;;;;5095453;28;20458;-72
2021/03/05 11:13:15;;;;;;;39.50;18.00;;;7.00;67.70;;;;;;5076644;28;20676;-72
2021/03/05 11:15:41;;;;;;;38.88;18.65;;;7.00;67.60;;;;;;5095162;28;20334;-72
2021/03/05 11:18:07;;;;;;;43.28;21.65;;;7.00;67.50;;;;;;5095039;28;20024;-72
2021/03/05 11:20:32;;;;;;;45.97;20.63;;;6.90;67.50;;;;;;5095182;28;20020;-72
2021/03/05 11:22:59;;;;;;;42.08;21.48;;;6.90;67.90;;;;;;5076728;28;20078;-72
2021/03/05 11:25:25;;;;;;;74.60;32.38;;;6.90;67.90;;;;;;5076394;28;20020;-72
2021/03/05 11:27:51;;;;;;;64.68;29.20;;;6.90;68.00;;;;;;5076912;28;20024;-72
2021/03/05 11:30:17;;;;;;;50.65;22.80;;;6.90;68.10;;;;;;5095008;28;20115;-72
2021/03/05 11:32:43;;;;;;;51.60;25.25;;;6.90;68.10;;;;;;5094692;28;20098;-72
2021/03/05 11:35:09;;;;;;;67.65;30.33;;;6.90;68.20;;;;;;5076231;28;20105;-72
2021/03/05 11:37:35;;;;;;;45.22;21.38;;;7.00;68.40;;;;;;5094889;28;20047;-72
2021/03/05 11:40:01;;;;;;;42.47;19.55;;;7.00;68.00;;;;;;5094770;28;20024;-72
2021/03/05 11:42:26;;;;;;;43.20;21.05;;;6.90;67.80;;;;;;5076181;28;20020;-72
2021/03/05 11:44:52;;;;;;;46.67;19.05;;;6.80;67.80;;;;;;5094345;28;20095;-72
2021/03/05 11:47:18;;;;;;;41.20;19.75;;;6.80;67.80;;;;;;5075666;28;20038;-73
2021/03/05 11:49:44;;;;;;;43.33;20.98;;;6.70;67.90;;;;;;5094605;28;20020;-72
2021/03/05 11:52:10;;;;;;;45.63;21.67;;;6.60;67.90;;;;;;5094217;28;20454;-72
2021/03/05 11:54:36;;;;;;;48.88;22.83;;;6.60;68.70;;;;;;5076082;28;20058;-72
2021/03/05 11:57:02;;;;;;;50.35;24.52;;;6.50;68.30;;;;;;5075956;28;20032;-72
2021/03/05 11:59:29;;;;;;;50.28;21.95;;;6.40;68.40;;;;;;5094036;28;20073;-72
2021/03/05 12:01:56;;;;;;;49.70;25.10;;;6.40;68.60;;;;;;5094122;28;20016;-72
2021/03/05 12:04:21;;;;;;;44.45;21.20;;;6.40;69.00;;;;;;5093847;28;20058;-72
2021/03/05 12:06:47;;;;;;;50.03;22.08;;;6.50;69.40;;;;;;5075923;28;20039;-72
2021/03/05 12:09:13;;;;;;;48.85;23.98;;;6.50;69.40;;;;;;5094379;28;20084;-72
2021/03/05 12:11:38;;;;;;;49.60;23.35;;;6.50;69.20;;;;;;5075877;28;20115;-72
2021/03/05 12:14:05;;;;;;;49.15;22.33;;;6.40;68.90;;;;;;5094376;28;20024;-72
2021/03/05 12:16:31;;;;;;;53.92;24.90;;;6.40;69.00;;;;;;5093759;28;20021;-76
2021/03/05 12:18:57;;;;;;;42.88;21.48;;;6.40;69.10;;;;;;5061755;28;20020;-72
2021/03/05 12:21:22;;;;;;;60.22;26.90;;;6.40;69.10;;;;;;5094086;28;20538;-72
2021/03/05 12:23:48;;;;;;;48.65;23.00;;;6.40;69.10;;;;;;5093853;28;20020;-72
2021/03/05 12:26:14;;;;;;;53.90;23.67;;;6.50;69.10;;;;;;5093581;28;20032;-72
2021/03/05 12:28:39;;;;;;;48.45;24.10;;;6.60;69.20;;;;;;5093733;28;20039;-72
2021/03/05 12:31:05;;;;;;;50.05;23.65;;;6.60;69.20;;;;;;5075286;28;20028;-72
2021/03/05 12:33:31;;;;;;;43.22;21.45;;;6.60;69.10;;;;;;5075745;28;20120;-75
2021/03/05 12:35:57;;;;;;;49.22;24.00;;;6.70;69.10;;;;;;5093814;28;20020;-72
2021/03/05 12:38:22;;;;;;;47.47;22.80;;;6.70;68.90;;;;;;5075541;28;20024;-72
2021/03/05 12:40:49;;;;;;;44.10;21.63;;;6.70;68.60;;;;;;5093425;28;20024;-72
2021/03/05 12:43:14;;;;;;;46.92;21.52;;;6.70;68.50;;;;;;5093256;28;20062;-72
2021/03/05 12:45:40;;;;;;;50.58;23.98;;;6.70;68.40;;;;;;5074996;28;20072;-73
2021/03/05 12:48:06;;;;;;;51.08;25.00;;;6.60;68.40;;;;;;5075549;28;20039;-72
2021/03/05 12:50:32;;;;;;;50.85;23.10;;;6.60;68.30;;;;;;5075018;28;20049;-72